sensor_id;sensor_type;location;lat;lon;timestamp;pressure;altitude;pressure_sealevel;temperature;humidity
75794;BME280;64418;47.536;19.074;2024-01-30T00:01:08;102702.13;;;-1.82;100.00
75794;BME280;64418;47.536;19.074;2024-01-30T00:03:34;102710.09;;;-1.82;100.00
75794;BME280;64418;47.536;19.074;2024-01-30T00:06:00;102708.66;;;-1.89;100.00
75794;BME280;64418;47.536;19.074;2024-01-30T00:08:26;102710.56;;;-1.92;100.00
75794;BME280;64418;47.536;19.074;2024-01-30T00:10:54;102713.50;;;-1.99;100.00
75794;BME280;64418;47.536;19.074;2024-01-30T00:13:20;102714.56;;;-1.82;100.00
75794;BME280;64418;47.536;19.074;2024-01-30T00:15:46;102715.09;;;-1.95;100.00
75794;BME280;64418;47.536;19.074;2024-01-30T00:18:13;102706.34;;;-1.97;100.00
75794;BME280;64418;47.536;19.074;2024-01-30T00:20:39;102702.47;;;-1.89;100.00
75794;BME280;64418;47.536;19.074;2024-01-30T00:23:05;102707.16;;;-1.76;100.00
75794;BME280;64418;47.536;19.074;2024-01-30T00:25:31;102707.66;;;-1.86;100.00
75794;BME280;64418;47.536;19.074;2024-01-30T00:27:57;102712.84;;;-2.04;100.00
75794;BME280;64418;47.536;19.074;2024-01-30T00:30:23;102717.38;;;-2.06;100.00
75794;BME280;64418;47.536;19.074;2024-01-30T00:32:53;102716.06;;;-2.16;100.00
75794;BME280;64418;47.536;19.074;2024-01-30T00:35:20;102718.91;;;-2.20;100.00
75794;BME280;64418;47.536;19.074;2024-01-30T00:37:46;102725.81;;;-2.16;100.00
75794;BME280;64418;47.536;19.074;2024-01-30T00:40:12;102729.72;;;-2.05;100.00
75794;BME280;64418;47.536;19.074;2024-01-30T00:42:38;102725.72;;;-1.95;100.00
75794;BME280;64418;47.536;19.074;2024-01-30T00:45:04;102726.72;;;-1.97;100.00
75794;BME280;64418;47.536;19.074;2024-01-30T00:47:30;102720.47;;;-1.96;100.00
75794;BME280;64418;47.536;19.074;2024-01-30T00:49:56;102722.41;;;-2.00;100.00
75794;BME280;64418;47.536;19.074;2024-01-30T00:52:23;102725.72;;;-1.95;100.00
75794;BME280;64418;47.536;19.074;2024-01-30T00:54:49;102716.12;;;-1.97;100.00
75794;BME280;64418;47.536;19.074;2024-01-30T00:57:17;102720.41;;;-1.95;100.00
75794;BME280;64418;47.536;19.074;2024-01-30T00:59:43;102718.97;;;-2.02;100.00
75794;BME280;64418;47.536;19.074;2024-01-30T01:02:09;102711.91;;;-2.03;100.00
75794;BME280;64418;47.536;19.074;2024-01-30T01:04:35;102714.03;;;-2.11;100.00
75794;BME280;64418;47.536;19.074;2024-01-30T01:07:01;102710.41;;;-2.08;100.00
75794;BME280;64418;47.536;19.074;2024-01-30T01:09:29;102713.66;;;-2.02;100.00
75794;BME280;64418;47.536;19.074;2024-01-30T01:11:55;102712.78;;;-2.02;100.00
75794;BME280;64418;47.536;19.074;2024-01-30T01:14:21;102717.03;;;-2.18;100.00
75794;BME280;64418;47.536;19.074;2024-01-30T01:16:47;102711.16;;;-2.25;100.00
75794;BME280;64418;47.536;19.074;2024-01-30T01:19:13;102712.75;;;-2.21;100.00
75794;BME280;64418;47.536;19.074;2024-01-30T01:21:39;102705.03;;;-2.07;100.00
75794;BME280;64418;47.536;19.074;2024-01-30T01:24:05;102709.25;;;-2.03;100.00
75794;BME280;64418;47.536;19.074;2024-01-30T01:26:32;102708.88;;;-2.14;100.00
75794;BME280;64418;47.536;19.074;2024-01-30T01:28:58;102712.22;;;-2.09;100.00
75794;BME280;64418;47.536;19.074;2024-01-30T01:31:24;102717.66;;;-2.12;100.00
75794;BME280;64418;47.536;19.074;2024-01-30T01:33:49;102706.34;;;-1.97;100.00
75794;BME280;64418;47.536;19.074;2024-01-30T01:36:18;102699.72;;;-2.07;100.00
75794;BME280;64418;47.536;19.074;2024-01-30T01:38:45;102695.31;;;-2.08;100.00
75794;BME280;64418;47.536;19.074;2024-01-30T01:41:10;102705.34;;;-2.14;100.00
75794;BME280;64418;47.536;19.074;2024-01-30T01:43:38;102703.03;;;-2.22;100.00
75794;BME280;64418;47.536;19.074;2024-01-30T01:46:04;102703.56;;;-2.14;100.00
75794;BME280;64418;47.536;19.074;2024-01-30T01:48:30;102705.56;;;-2.19;100.00
75794;BME280;64418;47.536;19.074;2024-01-30T01:50:56;102693.09;;;-2.17;100.00
75794;BME280;64418;47.536;19.074;2024-01-30T01:53:22;102698.22;;;-2.32;100.00
75794;BME280;64418;47.536;19.074;2024-01-30T01:55:49;102704.37;;;-2.32;100.00
75794;BME280;64418;47.536;19.074;2024-01-30T01:58:15;102695.03;;;-2.40;100.00
75794;BME280;64418;47.536;19.074;2024-01-30T02:00:42;102698.53;;;-2.40;100.00
75794;BME280;64418;47.536;19.074;2024-01-30T02:03:10;102695.59;;;-2.34;100.00
75794;BME280;64418;47.536;19.074;2024-01-30T02:05:36;102700.19;;;-2.37;100.00
75794;BME280;64418;47.536;19.074;2024-01-30T02:08:06;102694.87;;;-2.37;100.00
75794;BME280;64418;47.536;19.074;2024-01-30T02:10:34;102689.12;;;-2.47;100.00
75794;BME280;64418;47.536;19.074;2024-01-30T02:13:00;102695.94;;;-2.42;100.00
75794;BME280;64418;47.536;19.074;2024-01-30T02:15:29;102687.66;;;-2.54;100.00
75794;BME280;64418;47.536;19.074;2024-01-30T02:17:56;102694.28;;;-2.64;100.00
75794;BME280;64418;47.536;19.074;2024-01-30T02:20:23;102690.38;;;-2.76;100.00
75794;BME280;64418;47.536;19.074;2024-01-30T02:22:52;102683.94;;;-2.70;100.00
75794;BME280;64418;47.536;19.074;2024-01-30T02:25:19;102688.78;;;-2.60;100.00
75794;BME280;64418;47.536;19.074;2024-01-30T02:27:46;102665.97;;;-2.84;100.00
75794;BME280;64418;47.536;19.074;2024-01-30T02:30:12;102688.78;;;-2.80;100.00
75794;BME280;64418;47.536;19.074;2024-01-30T02:32:38;102686.12;;;-2.80;100.00
75794;BME280;64418;47.536;19.074;2024-01-30T02:35:04;102686.31;;;-2.84;100.00
75794;BME280;64418;47.536;19.074;2024-01-30T02:37:30;102694.63;;;-2.94;100.00
75794;BME280;64418;47.536;19.074;2024-01-30T02:39:57;102629.19;;;-3.35;100.00
75794;BME280;64418;47.536;19.074;2024-01-30T02:42:23;102689.59;;;-3.00;100.00
75794;BME280;64418;47.536;19.074;2024-01-30T02:44:49;102683.78;;;-3.09;100.00
75794;BME280;64418;47.536;19.074;2024-01-30T02:47:15;102695.13;;;-3.06;100.00
75794;BME280;64418;47.536;19.074;2024-01-30T02:49:41;102693.03;;;-2.98;100.00
75794;BME280;64418;47.536;19.074;2024-01-30T02:52:06;102696.94;;;-3.06;100.00
75794;BME280;64418;47.536;19.074;2024-01-30T02:54:32;102675.41;;;-3.20;100.00
75794;BME280;64418;47.536;19.074;2024-01-30T02:57:00;102620.16;;;-3.29;100.00
75794;BME280;64418;47.536;19.074;2024-01-30T02:59:26;102679.00;;;-3.00;100.00
75794;BME280;64418;47.536;19.074;2024-01-30T03:01:51;102680.59;;;-2.96;100.00
75794;BME280;64418;47.536;19.074;2024-01-30T03:04:20;102679.41;;;-2.88;100.00
75794;BME280;64418;47.536;19.074;2024-01-30T03:06:46;102682.44;;;-2.98;100.00
75794;BME280;64418;47.536;19.074;2024-01-30T03:09:12;102682.97;;;-3.10;100.00
75794;BME280;64418;47.536;19.074;2024-01-30T03:11:38;102680.47;;;-3.14;100.00
75794;BME280;64418;47.536;19.074;2024-01-30T03:14:05;102687.81;;;-3.21;100.00
75794;BME280;64418;47.536;19.074;2024-01-30T03:16:31;102643.44;;;-3.37;100.00
75794;BME280;64418;47.536;19.074;2024-01-30T03:18:57;102690.56;;;-3.24;100.00
75794;BME280;64418;47.536;19.074;2024-01-30T03:21:23;102699.09;;;-3.16;100.00
75794;BME280;64418;47.536;19.074;2024-01-30T03:23:49;102679.62;;;-3.15;100.00
75794;BME280;64418;47.536;19.074;2024-01-30T03:26:15;102685.41;;;-3.05;100.00
75794;BME280;64418;47.536;19.074;2024-01-30T03:28:41;102698.16;;;-2.93;100.00
75794;BME280;64418;47.536;19.074;2024-01-30T03:31:08;102700.06;;;-2.97;100.00
75794;BME280;64418;47.536;19.074;2024-01-30T03:33:34;102661.63;;;-3.07;100.00
75794;BME280;64418;47.536;19.074;2024-01-30T03:36:04;102697.28;;;-2.94;100.00
75794;BME280;64418;47.536;19.074;2024-01-30T03:38:30;102690.94;;;-2.89;100.00
75794;BME280;64418;47.536;19.074;2024-01-30T03:40:56;102670.22;;;-3.02;100.00
75794;BME280;64418;47.536;19.074;2024-01-30T03:43:23;102684.03;;;-2.94;100.00
75794;BME280;64418;47.536;19.074;2024-01-30T03:45:50;102685.91;;;-2.96;100.00
75794;BME280;64418;47.536;19.074;2024-01-30T03:48:18;102680.47;;;-2.93;100.00
75794;BME280;64418;47.536;19.074;2024-01-30T03:50:44;102676.53;;;-3.04;100.00
75794;BME280;64418;47.536;19.074;2024-01-30T03:53:11;102675.66;;;-3.05;100.00
75794;BME280;64418;47.536;19.074;2024-01-30T03:55:40;102672.91;;;-2.81;100.00
75794;BME280;64418;47.536;19.074;2024-01-30T03:58:06;102632.53;;;-3.30;100.00
75794;BME280;64418;47.536;19.074;2024-01-30T04:00:32;102604.84;;;-3.23;100.00
75794;BME280;64418;47.536;19.074;2024-01-30T04:02:59;102675.44;;;-2.78;100.00
75794;BME280;64418;47.536;19.074;2024-01-30T04:05:30;102676.03;;;-2.92;100.00
75794;BME280;64418;47.536;19.074;2024-01-30T04:07:57;102672.56;;;-2.94;100.00
75794;BME280;64418;47.536;19.074;2024-01-30T04:10:26;102675.66;;;-3.05;100.00
75794;BME280;64418;47.536;19.074;2024-01-30T04:12:54;102668.84;;;-2.90;100.00
75794;BME280;64418;47.536;19.074;2024-01-30T04:15:22;102663.50;;;-2.88;100.00
75794;BME280;64418;47.536;19.074;2024-01-30T04:17:49;102669.31;;;-3.01;100.00
75794;BME280;64418;47.536;19.074;2024-01-30T04:20:39;102671.66;;;-3.15;100.00
75794;BME280;64418;47.536;19.074;2024-01-30T04:23:07;102663.16;;;-3.23;100.00
75794;BME280;64418;47.536;19.074;2024-01-30T04:25:34;102671.28;;;-3.27;100.00
75794;BME280;64418;47.536;19.074;2024-01-30T04:28:04;102664.34;;;-3.30;100.00
75794;BME280;64418;47.536;19.074;2024-01-30T04:30:32;102672.16;;;-3.27;100.00
75794;BME280;64418;47.536;19.074;2024-01-30T04:33:03;102673.75;;;-3.23;100.00
75794;BME280;64418;47.536;19.074;2024-01-30T04:35:39;102675.62;;;-3.25;100.00
75794;BME280;64418;47.536;19.074;2024-01-30T04:38:06;102670.31;;;-3.25;100.00
75794;BME280;64418;47.536;19.074;2024-01-30T04:40:36;102671.25;;;-3.26;100.00
75794;BME280;64418;47.536;19.074;2024-01-30T04:43:08;102679.00;;;-3.21;100.00
75794;BME280;64418;47.536;19.074;2024-01-30T04:45:36;102672.97;;;-3.25;100.00
75794;BME280;64418;47.536;19.074;2024-01-30T04:48:03;102671.09;;;-3.23;100.00
75794;BME280;64418;47.536;19.074;2024-01-30T04:50:30;102669.69;;;-3.10;100.00
75794;BME280;64418;47.536;19.074;2024-01-30T04:53:14;102672.72;;;-3.19;100.00
75794;BME280;64418;47.536;19.074;2024-01-30T04:55:42;102682.62;;;-3.24;100.00
75794;BME280;64418;47.536;19.074;2024-01-30T04:58:11;102675.31;;;-3.17;100.00
75794;BME280;64418;47.536;19.074;2024-01-30T05:00:40;102682.72;;;-3.25;100.00
75794;BME280;64418;47.536;19.074;2024-01-30T05:03:20;102690.44;;;-3.21;100.00
75794;BME280;64418;47.536;19.074;2024-01-30T05:05:48;102692.19;;;-3.20;100.00
75794;BME280;64418;47.536;19.074;2024-01-30T05:08:19;102557.06;;;-4.07;100.00
75794;BME280;64418;47.536;19.074;2024-01-30T05:10:47;102693.63;;;-3.33;100.00
75794;BME280;64418;47.536;19.074;2024-01-30T05:13:14;102688.97;;;-3.28;100.00
75794;BME280;64418;47.536;19.074;2024-01-30T05:15:42;102694.66;;;-3.15;100.00
75794;BME280;64418;47.536;19.074;2024-01-30T05:18:09;102695.38;;;-3.12;100.00
75794;BME280;64418;47.536;19.074;2024-01-30T05:20:41;102704.25;;;-3.13;100.00
75794;BME280;64418;47.536;19.074;2024-01-30T05:23:08;102699.97;;;-3.15;100.00
75794;BME280;64418;47.536;19.074;2024-01-30T05:25:40;102710.38;;;-3.11;100.00
75794;BME280;64418;47.536;19.074;2024-01-30T05:28:08;102712.22;;;-3.13;100.00
75794;BME280;64418;47.536;19.074;2024-01-30T05:30:36;102712.91;;;-3.08;100.00
75794;BME280;64418;47.536;19.074;2024-01-30T05:33:03;102709.22;;;-3.25;100.00
75794;BME280;64418;47.536;19.074;2024-01-30T05:35:30;102690.56;;;-3.46;100.00
75794;BME280;64418;47.536;19.074;2024-01-30T05:37:56;102644.72;;;-3.69;100.00
75794;BME280;64418;47.536;19.074;2024-01-30T05:40:24;102722.50;;;-3.27;100.00
75794;BME280;64418;47.536;19.074;2024-01-30T05:42:57;102719.97;;;-3.30;100.00
75794;BME280;64418;47.536;19.074;2024-01-30T05:45:31;102722.50;;;-3.27;100.00
75794;BME280;64418;47.536;19.074;2024-01-30T05:47:59;102725.16;;;-3.27;100.00
75794;BME280;64418;47.536;19.074;2024-01-30T05:50:27;102711.13;;;-3.29;100.00
75794;BME280;64418;47.536;19.074;2024-01-30T05:52:59;102682.62;;;-3.46;100.00
75794;BME280;64418;47.536;19.074;2024-01-30T05:55:30;102720.91;;;-3.31;100.00
75794;BME280;64418;47.536;19.074;2024-01-30T05:58:04;102717.47;;;-3.33;100.00
75794;BME280;64418;47.536;19.074;2024-01-30T06:00:40;102722.63;;;-3.30;100.00
75794;BME280;64418;47.536;19.074;2024-01-30T06:03:14;102718.53;;;-3.38;100.00
75794;BME280;64418;47.536;19.074;2024-01-30T06:05:47;102723.50;;;-3.29;100.00
75794;BME280;64418;47.536;19.074;2024-01-30T06:08:15;102733.94;;;-3.25;100.00
75794;BME280;64418;47.536;19.074;2024-01-30T06:10:45;102724.91;;;-3.21;100.00
75794;BME280;64418;47.536;19.074;2024-01-30T06:13:20;102728.41;;;-3.20;100.00
75794;BME280;64418;47.536;19.074;2024-01-30T06:44:16;102742.63;;;-3.00;100.00
75794;BME280;64418;47.536;19.074;2024-01-30T06:46:41;102737.06;;;-2.94;100.00
75794;BME280;64418;47.536;19.074;2024-01-30T06:49:07;102734.84;;;-2.82;100.00
75794;BME280;64418;47.536;19.074;2024-01-30T06:51:34;102738.63;;;-2.68;100.00
75794;BME280;64418;47.536;19.074;2024-01-30T06:53:59;102740.59;;;-2.51;100.00
75794;BME280;64418;47.536;19.074;2024-01-30T06:56:25;102746.31;;;-2.40;100.00
75794;BME280;64418;47.536;19.074;2024-01-30T06:58:54;102724.53;;;-2.48;100.00
75794;BME280;64418;47.536;19.074;2024-01-30T07:01:27;102733.53;;;-2.30;100.00
75794;BME280;64418;47.536;19.074;2024-01-30T07:03:54;102740.75;;;-2.14;100.00
75794;BME280;64418;47.536;19.074;2024-01-30T07:06:20;102712.84;;;-2.04;100.00
75794;BME280;64418;47.536;19.074;2024-01-30T07:08:46;102742.75;;;-1.80;100.00
75794;BME280;64418;47.536;19.074;2024-01-30T07:11:18;102696.12;;;-2.06;100.00
75794;BME280;64418;47.536;19.074;2024-01-30T07:13:45;102729.50;;;-1.61;100.00
75794;BME280;64418;47.536;19.074;2024-01-30T07:16:11;102732.00;;;-1.58;100.00
75794;BME280;64418;47.536;19.074;2024-01-30T07:18:41;102741.81;;;-1.59;100.00
75794;BME280;64418;47.536;19.074;2024-01-30T07:21:08;102742.16;;;-1.48;100.00
75794;BME280;64418;47.536;19.074;2024-01-30T07:23:34;102747.38;;;-1.65;100.00
75794;BME280;64418;47.536;19.074;2024-01-30T07:26:01;102735.25;;;-1.70;100.00
75794;BME280;64418;47.536;19.074;2024-01-30T07:28:27;102748.94;;;-1.79;100.00
75794;BME280;64418;47.536;19.074;2024-01-30T07:30:54;102741.81;;;-1.98;100.00
75794;BME280;64418;47.536;19.074;2024-01-30T07:33:20;102738.47;;;-2.03;100.00
75794;BME280;64418;47.536;19.074;2024-01-30T07:35:56;102740.66;;;-1.92;100.00
75794;BME280;64418;47.536;19.074;2024-01-30T07:38:22;102739.50;;;-1.66;100.00
75794;BME280;64418;47.536;19.074;2024-01-30T07:40:49;102735.28;;;-1.33;100.00
75794;BME280;64418;47.536;19.074;2024-01-30T07:43:16;102742.88;;;-1.07;100.00
75794;BME280;64418;47.536;19.074;2024-01-30T07:45:43;102736.97;;;-0.94;100.00
75794;BME280;64418;47.536;19.074;2024-01-30T07:48:09;102737.28;;;-0.83;100.00
75794;BME280;64418;47.536;19.074;2024-01-30T07:50:35;102730.66;;;-0.40;100.00
75794;BME280;64418;47.536;19.074;2024-01-30T07:53:05;102740.31;;;-0.21;100.00
75794;BME280;64418;47.536;19.074;2024-01-30T07:56:08;102730.12;;;-0.30;100.00
75794;BME280;64418;47.536;19.074;2024-01-30T07:58:34;102723.78;;;-0.27;100.00
75794;BME280;64418;47.536;19.074;2024-01-30T08:01:00;102729.50;;;-0.35;100.00
75794;BME280;64418;47.536;19.074;2024-01-30T08:03:26;102660.50;;;0.11;100.00
75794;BME280;64418;47.536;19.074;2024-01-30T08:05:52;102728.50;;;0.66;100.00
75794;BME280;64418;47.536;19.074;2024-01-30T08:08:20;102717.28;;;1.07;100.00
75794;BME280;64418;47.536;19.074;2024-01-30T08:10:49;102728.91;;;1.51;100.00
75794;BME280;64418;47.536;19.074;2024-01-30T08:13:15;102734.16;;;1.53;100.00
75794;BME280;64418;47.536;19.074;2024-01-30T08:15:42;102729.25;;;1.00;100.00
75794;BME280;64418;47.536;19.074;2024-01-30T08:18:08;102726.72;;;1.43;100.00
75794;BME280;64418;47.536;19.074;2024-01-30T08:20:34;102724.28;;;2.27;100.00
75794;BME280;64418;47.536;19.074;2024-01-30T08:23:00;102733.19;;;2.41;100.00
75794;BME280;64418;47.536;19.074;2024-01-30T08:25:28;102708.22;;;2.13;100.00
75794;BME280;64418;47.536;19.074;2024-01-30T08:27:54;102734.66;;;3.15;100.00
75794;BME280;64418;47.536;19.074;2024-01-30T08:30:20;102739.25;;;3.13;100.00
75794;BME280;64418;47.536;19.074;2024-01-30T08:32:46;102738.03;;;3.70;100.00
75794;BME280;64418;47.536;19.074;2024-01-30T08:35:13;102737.97;;;3.45;100.00
75794;BME280;64418;47.536;19.074;2024-01-30T08:37:40;102741.19;;;3.89;100.00
75794;BME280;64418;47.536;19.074;2024-01-30T08:40:07;102743.12;;;3.48;100.00
75794;BME280;64418;47.536;19.074;2024-01-30T08:42:39;102737.00;;;3.73;100.00
75794;BME280;64418;47.536;19.074;2024-01-30T08:45:06;102716.41;;;4.24;100.00
75794;BME280;64418;47.536;19.074;2024-01-30T08:47:32;102752.91;;;4.26;100.00
75794;BME280;64418;47.536;19.074;2024-01-30T08:49:58;102747.94;;;4.46;100.00
75794;BME280;64418;47.536;19.074;2024-01-30T08:52:24;102751.09;;;4.14;100.00
75794;BME280;64418;47.536;19.074;2024-01-30T08:54:50;102750.91;;;3.65;100.00
75794;BME280;64418;47.536;19.074;2024-01-30T08:57:16;102734.59;;;3.29;100.00
75794;BME280;64418;47.536;19.074;2024-01-30T08:59:47;102739.34;;;3.11;100.00
75794;BME280;64418;47.536;19.074;2024-01-30T09:02:14;102734.56;;;3.16;100.00
75794;BME280;64418;47.536;19.074;2024-01-30T09:04:39;102739.69;;;2.92;100.00
75794;BME280;64418;47.536;19.074;2024-01-30T09:07:05;102716.00;;;2.86;100.00
75794;BME280;64418;47.536;19.074;2024-01-30T09:09:31;102732.59;;;2.91;100.00
75794;BME280;64418;47.536;19.074;2024-01-30T09:11:57;102729.75;;;2.80;100.00
75794;BME280;64418;47.536;19.074;2024-01-30T09:14:26;102723.22;;;2.99;100.00
75794;BME280;64418;47.536;19.074;2024-01-30T09:16:53;102717.69;;;3.02;100.00
75794;BME280;64418;47.536;19.074;2024-01-30T09:19:19;102686.97;;;2.11;100.00
75794;BME280;64418;47.536;19.074;2024-01-30T09:21:45;102722.50;;;2.82;100.00
75794;BME280;64418;47.536;19.074;2024-01-30T09:24:11;102732.88;;;2.60;100.00
75794;BME280;64418;47.536;19.074;2024-01-30T09:26:39;102686.28;;;3.30;100.00
75794;BME280;64418;47.536;19.074;2024-01-30T09:29:05;102730.88;;;4.96;100.00
75794;BME280;64418;47.536;19.074;2024-01-30T09:31:35;102730.31;;;4.79;100.00
75794;BME280;64418;47.536;19.074;2024-01-30T09:34:03;102720.66;;;6.29;100.00
75794;BME280;64418;47.536;19.074;2024-01-30T09:36:29;102719.94;;;7.57;98.76
75794;BME280;64418;47.536;19.074;2024-01-30T09:38:55;102725.06;;;7.60;90.82
75794;BME280;64418;47.536;19.074;2024-01-30T09:41:23;102728.44;;;7.73;88.79
75794;BME280;64418;47.536;19.074;2024-01-30T09:43:50;102711.66;;;6.95;90.35
75794;BME280;64418;47.536;19.074;2024-01-30T09:46:18;102719.00;;;7.04;91.42
75794;BME280;64418;47.536;19.074;2024-01-30T09:48:45;102726.84;;;7.07;86.83
75794;BME280;64418;47.536;19.074;2024-01-30T09:51:14;102719.75;;;8.32;80.88
75794;BME280;64418;47.536;19.074;2024-01-30T09:53:42;102719.25;;;7.01;84.71
75794;BME280;64418;47.536;19.074;2024-01-30T09:56:08;102725.00;;;7.71;83.77
75794;BME280;64418;47.536;19.074;2024-01-30T09:58:36;102721.22;;;6.99;85.43
75794;BME280;64418;47.536;19.074;2024-01-30T10:01:03;102718.50;;;8.15;83.85
75794;BME280;64418;47.536;19.074;2024-01-30T10:03:29;102724.63;;;7.97;81.98
75794;BME280;64418;47.536;19.074;2024-01-30T10:05:56;102721.06;;;7.75;85.20
75794;BME280;64418;47.536;19.074;2024-01-30T10:08:23;102730.34;;;7.62;87.29
75794;BME280;64418;47.536;19.074;2024-01-30T10:10:50;102720.22;;;8.77;81.75
75794;BME280;64418;47.536;19.074;2024-01-30T10:13:16;102716.38;;;9.39;76.64
75794;BME280;64418;47.536;19.074;2024-01-30T10:15:42;102719.72;;;10.27;69.91
75794;BME280;64418;47.536;19.074;2024-01-30T10:18:08;102710.91;;;10.06;69.50
75794;BME280;64418;47.536;19.074;2024-01-30T10:20:34;102717.84;;;10.92;66.82
75794;BME280;64418;47.536;19.074;2024-01-30T10:23:00;102697.69;;;9.64;68.90
75794;BME280;64418;47.536;19.074;2024-01-30T10:25:28;102707.31;;;8.50;77.43
75794;BME280;64418;47.536;19.074;2024-01-30T10:27:54;102708.94;;;8.32;79.30
75794;BME280;64418;47.536;19.074;2024-01-30T10:30:20;102698.13;;;9.12;78.49
75794;BME280;64418;47.536;19.074;2024-01-30T10:32:47;102697.91;;;8.45;78.61
75794;BME280;64418;47.536;19.074;2024-01-30T10:35:13;102704.47;;;7.80;83.57
75794;BME280;64418;47.536;19.074;2024-01-30T10:37:39;102671.63;;;7.02;88.25
75794;BME280;64418;47.536;19.074;2024-01-30T10:40:08;102707.13;;;7.39;90.04
75794;BME280;64418;47.536;19.074;2024-01-30T10:49:17;102681.34;;;7.46;90.87
75794;BME280;64418;47.536;19.074;2024-01-30T10:51:44;102673.75;;;8.43;85.92
75794;BME280;64418;47.536;19.074;2024-01-30T10:54:12;102671.44;;;7.88;88.36
75794;BME280;64418;47.536;19.074;2024-01-30T10:56:38;102667.59;;;8.11;86.02
75794;BME280;64418;47.536;19.074;2024-01-30T10:59:05;102659.69;;;9.18;79.31
75794;BME280;64418;47.536;19.074;2024-01-30T11:01:32;102650.66;;;10.41;72.79
75794;BME280;64418;47.536;19.074;2024-01-30T11:03:59;102635.06;;;10.43;71.15
75794;BME280;64418;47.536;19.074;2024-01-30T11:06:29;102657.53;;;11.25;66.92
75794;BME280;64418;47.536;19.074;2024-01-30T11:09:01;102643.91;;;11.17;64.30
75794;BME280;64418;47.536;19.074;2024-01-30T11:11:27;102650.00;;;11.37;62.55
75794;BME280;64418;47.536;19.074;2024-01-30T11:13:53;102638.16;;;10.30;65.07
75794;BME280;64418;47.536;19.074;2024-01-30T11:16:20;102649.09;;;9.82;67.46
75794;BME280;64418;47.536;19.074;2024-01-30T11:18:50;102635.84;;;9.79;68.17
75794;BME280;64418;47.536;19.074;2024-01-30T11:24:19;102630.66;;;9.39;70.28
75794;BME280;64418;47.536;19.074;2024-01-30T11:26:46;102625.66;;;9.44;69.36
75794;BME280;64418;47.536;19.074;2024-01-30T11:29:14;102630.66;;;9.39;70.47
75794;BME280;64418;47.536;19.074;2024-01-30T11:31:40;102607.69;;;9.62;69.92
75794;BME280;64418;47.536;19.074;2024-01-30T11:34:18;102622.56;;;9.86;69.33
75794;BME280;64418;47.536;19.074;2024-01-30T11:36:51;102592.75;;;10.42;67.05
75794;BME280;64418;47.536;19.074;2024-01-30T11:39:24;102626.69;;;11.87;60.57
75794;BME280;64418;47.536;19.074;2024-01-30T11:41:52;102634.59;;;11.02;60.62
75794;BME280;64418;47.536;19.074;2024-01-30T11:44:19;102627.81;;;10.88;61.67
75794;BME280;64418;47.536;19.074;2024-01-30T11:46:46;102603.78;;;10.31;61.07
75794;BME280;64418;47.536;19.074;2024-01-30T11:49:13;102618.69;;;10.44;62.33
75794;BME280;64418;47.536;19.074;2024-01-30T11:51:42;102619.22;;;10.48;62.68
75794;BME280;64418;47.536;19.074;2024-01-30T11:54:09;102616.28;;;11.04;61.49
75794;BME280;64418;47.536;19.074;2024-01-30T11:56:37;102615.25;;;10.42;61.21
75794;BME280;64418;47.536;19.074;2024-01-30T11:59:03;102603.63;;;10.32;60.17
75794;BME280;64418;47.536;19.074;2024-01-30T12:01:29;102608.47;;;10.83;60.74
75794;BME280;64418;47.536;19.074;2024-01-30T12:03:57;102589.53;;;10.74;59.42
75794;BME280;64418;47.536;19.074;2024-01-30T12:06:23;102567.00;;;10.28;60.73
75794;BME280;64418;47.536;19.074;2024-01-30T12:08:57;102593.88;;;11.20;58.97
75794;BME280;64418;47.536;19.074;2024-01-30T12:11:23;102606.03;;;11.33;59.10
75794;BME280;64418;47.536;19.074;2024-01-30T12:13:53;102585.00;;;10.47;60.15
75794;BME280;64418;47.536;19.074;2024-01-30T12:16:18;102553.44;;;10.73;58.94
75794;BME280;64418;47.536;19.074;2024-01-30T12:18:47;102578.09;;;10.80;60.14
75794;BME280;64418;47.536;19.074;2024-01-30T12:21:16;102578.28;;;11.39;56.69
75794;BME280;64418;47.536;19.074;2024-01-30T12:23:46;102569.88;;;10.72;59.07
75794;BME280;64418;47.536;19.074;2024-01-30T12:26:13;102573.44;;;10.90;58.89
75794;BME280;64418;47.536;19.074;2024-01-30T12:28:48;102572.87;;;11.04;57.52
75794;BME280;64418;47.536;19.074;2024-01-30T12:31:18;102569.94;;;11.15;57.32
75794;BME280;64418;47.536;19.074;2024-01-30T12:33:50;102558.06;;;11.59;56.97
75794;BME280;64418;47.536;19.074;2024-01-30T12:36:17;102561.00;;;11.66;56.70
75794;BME280;64418;47.536;19.074;2024-01-30T12:38:44;102549.63;;;11.19;57.55
75794;BME280;64418;47.536;19.074;2024-01-30T12:41:10;102536.72;;;10.78;57.52
75794;BME280;64418;47.536;19.074;2024-01-30T12:43:36;102528.88;;;11.10;55.21
75794;BME280;64418;47.536;19.074;2024-01-30T12:46:03;102566.22;;;11.16;54.94
75794;BME280;64418;47.536;19.074;2024-01-30T12:48:31;102561.81;;;11.58;54.63
75794;BME280;64418;47.536;19.074;2024-01-30T12:50:58;102552.25;;;11.72;55.41
75794;BME280;64418;47.536;19.074;2024-01-30T12:53:24;102555.28;;;12.45;52.46
75794;BME280;64418;47.536;19.074;2024-01-30T12:55:51;102511.94;;;11.68;53.79
75794;BME280;64418;47.536;19.074;2024-01-30T12:58:20;102547.63;;;11.98;53.34
75794;BME280;64418;47.536;19.074;2024-01-30T13:00:46;102539.97;;;11.94;53.43
75794;BME280;64418;47.536;19.074;2024-01-30T13:03:12;102542.47;;;12.21;51.68
75794;BME280;64418;47.536;19.074;2024-01-30T13:05:45;102541.47;;;11.63;52.40
75794;BME280;64418;47.536;19.074;2024-01-30T13:08:11;102538.91;;;11.87;51.25
75794;BME280;64418;47.536;19.074;2024-01-30T13:10:41;102533.41;;;12.04;50.95
75794;BME280;64418;47.536;19.074;2024-01-30T13:13:07;102527.28;;;10.64;53.89
75794;BME280;64418;47.536;19.074;2024-01-30T13:15:32;102518.72;;;11.12;53.34